createdAt,value
2017-12-02T00:00:42.418Z,1015.56
2017-12-02T00:01:42.423Z,1015.58
2017-12-02T00:02:42.434Z,1015.62
2017-12-02T00:03:42.453Z,1015.62
2017-12-02T00:04:42.464Z,1015.63
2017-12-02T00:05:42.468Z,1015.63
2017-12-02T00:06:42.492Z,1015.63
2017-12-02T00:07:42.517Z,1015.62
2017-12-02T00:08:42.510Z,1015.65
2017-12-02T00:09:42.525Z,1015.68
2017-12-02T00:10:42.543Z,1015.69
2017-12-02T00:11:42.549Z,1015.68
2017-12-02T00:12:42.573Z,1015.74
2017-12-02T00:13:42.575Z,1015.76
2017-12-02T00:14:42.597Z,1015.74
2017-12-02T00:15:42.598Z,1015.74
2017-12-02T00:16:42.607Z,1015.74
2017-12-02T00:17:42.628Z,1015.74
2017-12-02T00:18:42.634Z,1015.73
2017-12-02T00:19:42.653Z,1015.74
2017-12-02T00:20:42.906Z,1015.75
2017-12-02T00:21:42.677Z,1015.72
2017-12-02T00:22:42.684Z,1015.70
2017-12-02T00:23:42.696Z,1015.72
2017-12-02T00:24:42.714Z,1015.73
2017-12-02T00:25:42.730Z,1015.75
2017-12-02T00:26:42.735Z,1015.79
2017-12-02T00:27:42.759Z,1015.80
2017-12-02T00:28:42.759Z,1015.81
2017-12-02T00:29:42.773Z,1015.75
2017-12-02T00:30:43.093Z,1015.78
2017-12-02T00:31:42.804Z,1015.81
2017-12-02T00:32:42.811Z,1015.78
2017-12-02T00:33:42.819Z,1015.79
2017-12-02T00:34:42.831Z,1015.82
2017-12-02T00:35:42.850Z,1015.84
2017-12-02T00:36:42.861Z,1015.84
2017-12-02T00:37:42.863Z,1015.86
2017-12-02T00:38:42.896Z,1015.91
2017-12-02T00:39:42.893Z,1015.90
2017-12-02T00:40:42.912Z,1015.92
2017-12-02T00:41:42.922Z,1015.94
2017-12-02T00:42:42.933Z,1015.97
2017-12-02T00:43:42.945Z,1015.96
2017-12-02T00:44:42.951Z,1015.98
2017-12-02T00:45:42.972Z,1016.00
2017-12-02T00:46:42.992Z,1016.00
2017-12-02T00:47:42.997Z,1016.03
2017-12-02T00:48:43.011Z,1016.04
2017-12-02T00:49:43.043Z,1016.05
2017-12-02T00:50:43.030Z,1016.07
2017-12-02T00:51:43.048Z,1016.04
2017-12-02T00:52:43.070Z,1016.05
2017-12-02T00:53:43.074Z,1016.09
2017-12-02T00:54:43.082Z,1016.06
2017-12-02T00:55:43.105Z,1016.07
2017-12-02T00:56:43.118Z,1016.08
2017-12-02T00:57:43.133Z,1016.04
2017-12-02T00:58:43.126Z,1016.07
2017-12-02T00:59:43.151Z,1016.03
2017-12-02T01:00:43.168Z,1016.07
2017-12-02T01:01:43.166Z,1016.02
2017-12-02T01:02:43.182Z,1016.05
2017-12-02T01:03:43.202Z,1016.05
2017-12-02T01:04:43.208Z,1016.04
2017-12-02T01:05:43.236Z,1016.05
2017-12-02T01:06:43.240Z,1016.04
2017-12-02T01:07:43.243Z,1016.08
2017-12-02T01:08:43.262Z,1016.05
2017-12-02T01:09:43.278Z,1016.06
2017-12-02T01:10:43.282Z,1016.11
2017-12-02T01:11:43.296Z,1016.07
2017-12-02T01:12:43.300Z,1016.12
2017-12-02T01:13:43.321Z,1016.09
2017-12-02T01:14:43.341Z,1016.14
2017-12-02T01:15:43.343Z,1016.14
2017-12-02T01:16:43.364Z,1016.12
2017-12-02T01:17:43.380Z,1016.16
2017-12-02T01:18:43.379Z,1016.14
2017-12-02T01:19:43.393Z,1016.17
2017-12-02T01:20:43.422Z,1016.18
2017-12-02T01:21:43.418Z,1016.16
2017-12-02T01:22:43.437Z,1016.17
2017-12-02T01:23:43.448Z,1016.21
2017-12-02T01:24:43.461Z,1016.25
2017-12-02T01:25:43.476Z,1016.27
2017-12-02T01:26:43.486Z,1016.28
2017-12-02T01:27:43.499Z,1016.30
2017-12-02T01:28:43.504Z,1016.33
2017-12-02T01:29:43.519Z,1016.31
2017-12-02T01:30:43.545Z,1016.31
2017-12-02T01:31:43.543Z,1016.34
2017-12-02T01:32:43.563Z,1016.35
2017-12-02T01:33:43.577Z,1016.37
2017-12-02T01:34:43.588Z,1016.35
2017-12-02T01:35:43.650Z,1016.35
2017-12-02T01:36:43.608Z,1016.40
2017-12-02T01:37:43.635Z,1016.38
2017-12-02T01:38:43.637Z,1016.41
2017-12-02T01:39:43.639Z,1016.41
2017-12-02T01:40:43.916Z,1016.45
2017-12-02T01:41:43.680Z,1016.42
2017-12-02T01:42:43.679Z,1016.44
2017-12-02T01:43:43.712Z,1016.42
2017-12-02T01:44:43.715Z,1016.44
2017-12-02T01:45:43.726Z,1016.45
2017-12-02T01:46:43.746Z,1016.49
2017-12-02T01:47:43.749Z,1016.45
2017-12-02T01:48:43.761Z,1016.47
2017-12-02T01:49:43.772Z,1016.48
2017-12-02T01:50:43.787Z,1016.52
2017-12-02T01:51:43.807Z,1016.51
2017-12-02T01:52:43.812Z,1016.51
2017-12-02T01:53:43.813Z,1016.54
2017-12-02T01:54:43.839Z,1016.50
2017-12-02T01:55:43.850Z,1016.55
2017-12-02T01:56:43.858Z,1016.54
2017-12-02T01:57:43.876Z,1016.54
2017-12-02T01:58:43.883Z,1016.56
2017-12-02T01:59:43.896Z,1016.56
2017-12-02T02:00:44.156Z,1016.60
2017-12-02T02:01:43.930Z,1016.60
2017-12-02T02:02:43.936Z,1016.59
2017-12-02T02:03:43.947Z,1016.58
2017-12-02T02:04:43.955Z,1016.63
2017-12-02T02:05:43.976Z,1016.64
2017-12-02T02:06:43.986Z,1016.63
2017-12-02T02:07:43.999Z,1016.65
2017-12-02T02:08:44.011Z,1016.60
2017-12-02T02:09:44.026Z,1016.61
2017-12-02T02:10:44.331Z,1016.66
2017-12-02T02:11:44.050Z,1016.62
2017-12-02T02:12:44.063Z,1016.66
2017-12-02T02:13:44.077Z,1016.64
2017-12-02T02:14:44.083Z,1016.66
2017-12-02T02:15:44.109Z,1016.67
2017-12-02T02:16:44.112Z,1016.69
2017-12-02T02:17:44.114Z,1016.70
2017-12-02T02:18:44.141Z,1016.72
2017-12-02T02:19:44.158Z,1016.75
2017-12-02T02:20:44.165Z,1016.77
2017-12-02T02:21:44.168Z,1016.79
2017-12-02T02:22:44.203Z,1016.81
2017-12-02T02:23:44.197Z,1016.82
2017-12-02T02:24:44.203Z,1016.83
2017-12-02T02:25:44.223Z,1016.87
2017-12-02T02:26:44.237Z,1016.82
2017-12-02T02:27:44.242Z,1016.81
2017-12-02T02:28:44.262Z,1016.84
2017-12-02T02:29:44.283Z,1016.81
2017-12-02T02:30:44.288Z,1016.81
2017-12-02T02:31:44.293Z,1016.88
2017-12-02T02:32:44.312Z,1016.87
2017-12-02T02:33:44.327Z,1016.86
2017-12-02T02:34:44.339Z,1016.88
2017-12-02T02:35:44.358Z,1016.92
2017-12-02T02:36:44.364Z,1016.88
2017-12-02T02:37:44.374Z,1016.91
2017-12-02T02:38:44.379Z,1016.90
2017-12-02T02:39:44.409Z,1016.96
2017-12-02T02:40:44.408Z,1016.93
2017-12-02T02:41:44.415Z,1016.91
2017-12-02T02:42:44.449Z,1016.94
2017-12-02T02:43:44.452Z,1016.96
2017-12-02T02:44:44.460Z,1016.95
2017-12-02T02:45:44.480Z,1017.01
2017-12-02T02:46:44.491Z,1016.99
2017-12-02T02:47:44.499Z,1016.99
2017-12-02T02:48:44.510Z,1017.00
2017-12-02T02:49:44.530Z,1016.95
2017-12-02T02:50:44.536Z,1017.00
2017-12-02T02:51:44.542Z,1016.98
2017-12-02T02:52:44.557Z,1017.00
2017-12-02T02:53:44.577Z,1017.05
2017-12-02T02:54:44.583Z,1017.01
2017-12-02T02:55:44.601Z,1017.06
2017-12-02T02:56:44.618Z,1017.03
2017-12-02T02:57:44.624Z,1017.06
2017-12-02T02:58:44.639Z,1017.07
2017-12-02T02:59:44.658Z,1017.06
2017-12-02T03:00:44.664Z,1017.07
2017-12-02T03:01:44.673Z,1017.07
2017-12-02T03:02:44.683Z,1017.10
2017-12-02T03:03:44.703Z,1017.08
2017-12-02T03:04:44.715Z,1017.10
2017-12-02T03:05:44.722Z,1017.12
2017-12-02T03:06:44.743Z,1017.15
2017-12-02T03:07:44.746Z,1017.10
2017-12-02T03:08:44.766Z,1017.13
2017-12-02T03:09:44.771Z,1017.14
2017-12-02T03:10:44.792Z,1017.12
2017-12-02T03:11:44.805Z,1017.15
2017-12-02T03:12:44.803Z,1017.18
2017-12-02T03:13:44.826Z,1017.15
2017-12-02T03:14:44.844Z,1017.16
2017-12-02T03:15:45.103Z,1017.20
2017-12-02T03:16:44.853Z,1017.20
2017-12-02T03:17:44.880Z,1017.15
2017-12-02T03:18:44.892Z,1017.20
2017-12-02T03:19:44.909Z,1017.23
2017-12-02T03:20:44.917Z,1017.25
2017-12-02T03:21:44.932Z,1017.25
2017-12-02T03:22:44.931Z,1017.30
2017-12-02T03:23:44.963Z,1017.29
2017-12-02T03:24:44.960Z,1017.31
2017-12-02T03:25:45.276Z,1017.32
2017-12-02T03:26:44.984Z,1017.29
2017-12-02T03:27:45.007Z,1017.32
2017-12-02T03:28:45.029Z,1017.30
2017-12-02T03:29:45.021Z,1017.28
2017-12-02T03:30:45.050Z,1017.31
2017-12-02T03:31:45.058Z,1017.28
2017-12-02T03:32:45.058Z,1017.31
2017-12-02T03:33:45.089Z,1017.30
2017-12-02T03:34:45.098Z,1017.32
2017-12-02T03:35:45.095Z,1017.33
2017-12-02T03:36:45.109Z,1017.34
2017-12-02T03:37:45.132Z,1017.35
2017-12-02T03:38:45.136Z,1017.41
2017-12-02T03:39:45.150Z,1017.38
2017-12-02T03:40:45.173Z,1017.41
2017-12-02T03:41:45.181Z,1017.41
2017-12-02T03:42:45.193Z,1017.46
2017-12-02T03:43:45.199Z,1017.44
2017-12-02T03:44:45.220Z,1017.47
2017-12-02T03:45:45.527Z,1017.48
2017-12-02T03:46:45.236Z,1017.50
2017-12-02T03:47:45.257Z,1017.48
2017-12-02T03:48:45.268Z,1017.50
2017-12-02T03:49:45.270Z,1017.50
2017-12-02T03:50:45.291Z,1017.53
2017-12-02T03:51:45.310Z,1017.52
2017-12-02T03:52:45.319Z,1017.57
2017-12-02T03:53:45.322Z,1017.53
2017-12-02T03:54:45.347Z,1017.53
2017-12-02T03:55:45.352Z,1017.51
2017-12-02T03:56:45.365Z,1017.54
2017-12-02T03:57:45.366Z,1017.50
2017-12-02T03:58:45.398Z,1017.56
2017-12-02T03:59:45.404Z,1017.58
2017-12-02T04:00:45.717Z,1017.59
2017-12-02T04:01:45.432Z,1017.58
2017-12-02T04:02:45.437Z,1017.62
2017-12-02T04:03:45.449Z,1017.62
2017-12-02T04:04:45.461Z,1017.64
2017-12-02T04:05:45.476Z,1017.68
2017-12-02T04:06:45.494Z,1017.68
2017-12-02T04:07:45.500Z,1017.64
2017-12-02T04:08:45.518Z,1017.65
2017-12-02T04:09:45.534Z,1017.67
2017-12-02T04:10:45.532Z,1017.70
2017-12-02T04:11:45.557Z,1017.65
2017-12-02T04:12:45.570Z,1017.71
2017-12-02T04:13:45.573Z,1017.74
2017-12-02T04:14:45.594Z,1017.74
2017-12-02T04:15:45.602Z,1017.75
2017-12-02T04:16:45.621Z,1017.73
2017-12-02T04:17:45.624Z,1017.72
2017-12-02T04:18:45.647Z,1017.71
2017-12-02T04:19:45.660Z,1017.74
2017-12-02T04:20:45.909Z,1017.73
2017-12-02T04:21:45.687Z,1017.72
2017-12-02T04:22:45.697Z,1017.76
2017-12-02T04:23:45.705Z,1017.74
2017-12-02T04:24:45.719Z,1017.75
2017-12-02T04:25:46.039Z,1017.73
2017-12-02T04:26:45.736Z,1017.74
2017-12-02T04:27:45.761Z,1017.76
2017-12-02T04:28:45.773Z,1017.70
2017-12-02T04:29:45.777Z,1017.78
2017-12-02T04:30:45.791Z,1017.73
2017-12-02T04:31:45.807Z,1017.69
2017-12-02T04:32:45.828Z,1017.70
2017-12-02T04:33:45.829Z,1017.73
2017-12-02T04:34:45.845Z,1017.72
2017-12-02T04:35:45.861Z,1017.72
2017-12-02T04:36:45.870Z,1017.74
2017-12-02T04:37:45.880Z,1017.73
2017-12-02T04:38:45.898Z,1017.73
2017-12-02T04:39:45.903Z,1017.73
2017-12-02T04:40:45.916Z,1017.74
2017-12-02T04:41:45.936Z,1017.74
2017-12-02T04:42:45.941Z,1017.75
2017-12-02T04:43:45.962Z,1017.79
2017-12-02T04:44:45.989Z,1017.76
2017-12-02T04:45:45.981Z,1017.79
2017-12-02T04:46:46.002Z,1017.79
2017-12-02T04:47:46.011Z,1017.77
2017-12-02T04:48:46.025Z,1017.82
2017-12-02T04:49:46.041Z,1017.86
2017-12-02T04:50:46.056Z,1017.84
2017-12-02T04:51:46.070Z,1017.88
2017-12-02T04:52:46.074Z,1017.88
2017-12-02T04:53:46.084Z,1017.88
2017-12-02T04:54:46.102Z,1017.89
2017-12-02T04:55:46.413Z,1017.92
2017-12-02T04:56:46.120Z,1017.93
2017-12-02T04:57:46.149Z,1017.89
2017-12-02T04:58:46.152Z,1017.89
2017-12-02T04:59:46.166Z,1017.93
2017-12-02T05:00:46.177Z,1017.97
2017-12-02T05:01:46.192Z,1017.97
2017-12-02T05:02:46.199Z,1017.96
2017-12-02T05:03:46.215Z,1018.02
2017-12-02T05:04:46.229Z,1018.00
2017-12-02T05:05:46.537Z,1018.04
2017-12-02T05:06:46.250Z,1018.04
2017-12-02T05:07:46.268Z,1018.04
2017-12-02T05:08:46.273Z,1018.08
2017-12-02T05:09:46.307Z,1018.03
2017-12-02T05:10:46.314Z,1018.08
2017-12-02T05:11:46.319Z,1018.05
2017-12-02T05:12:46.332Z,1018.06
2017-12-02T05:13:46.353Z,1018.09
2017-12-02T05:14:46.357Z,1018.04
2017-12-02T05:15:46.364Z,1018.06
2017-12-02T05:16:46.387Z,1018.08
2017-12-02T05:17:46.396Z,1018.10
2017-12-02T05:18:46.403Z,1018.09
2017-12-02T05:19:46.426Z,1018.09
2017-12-02T05:20:46.440Z,1018.12
2017-12-02T05:21:46.441Z,1018.07
2017-12-02T05:22:46.448Z,1018.09
2017-12-02T05:23:46.472Z,1018.11
2017-12-02T05:24:46.483Z,1018.10
2017-12-02T05:25:46.493Z,1018.11
2017-12-02T05:26:46.520Z,1018.11
2017-12-02T05:27:46.522Z,1018.16
2017-12-02T05:28:46.536Z,1018.19
2017-12-02T05:29:46.556Z,1018.20
2017-12-02T05:30:46.562Z,1018.20
2017-12-02T05:31:46.572Z,1018.25
2017-12-02T05:32:46.586Z,1018.22
2017-12-02T05:33:46.597Z,1018.29
2017-12-02T05:34:46.615Z,1018.27
2017-12-02T05:35:46.621Z,1018.28
2017-12-02T05:36:46.645Z,1018.27
2017-12-02T05:37:46.653Z,1018.25
2017-12-02T05:38:46.668Z,1018.25
2017-12-02T05:39:46.677Z,1018.24
2017-12-02T05:40:46.688Z,1018.22
2017-12-02T05:41:46.696Z,1018.23
2017-12-02T05:42:46.723Z,1018.23
2017-12-02T05:43:46.728Z,1018.24
2017-12-02T05:44:46.733Z,1018.28
2017-12-02T05:45:46.762Z,1018.24
2017-12-02T05:46:46.761Z,1018.26
2017-12-02T05:47:46.774Z,1018.23
2017-12-02T05:48:46.785Z,1018.28
2017-12-02T05:49:46.806Z,1018.29
2017-12-02T05:50:46.815Z,1018.32
2017-12-02T05:51:46.820Z,1018.32
2017-12-02T05:52:46.844Z,1018.29
2017-12-02T05:53:46.852Z,1018.29
2017-12-02T05:54:46.862Z,1018.31
2017-12-02T05:55:46.887Z,1018.32
2017-12-02T05:56:46.894Z,1018.28
2017-12-02T05:57:46.895Z,1018.29
2017-12-02T05:58:46.910Z,1018.31
2017-12-02T05:59:46.933Z,1018.27
2017-12-02T06:00:46.939Z,1018.30
2017-12-02T06:01:46.947Z,1018.27
2017-12-02T06:02:46.965Z,1018.33
2017-12-02T06:03:46.985Z,1018.30
2017-12-02T06:04:46.982Z,1018.31
2017-12-02T06:05:47.300Z,1018.31
2017-12-02T06:06:47.024Z,1018.35
2017-12-02T06:07:47.022Z,1018.42
2017-12-02T06:08:47.035Z,1018.42
2017-12-02T06:09:47.056Z,1018.47
2017-12-02T06:10:47.062Z,1018.44
2017-12-02T06:11:47.074Z,1018.48
2017-12-02T06:12:47.086Z,1018.43
2017-12-02T06:13:47.113Z,1018.46
2017-12-02T06:14:47.119Z,1018.50
2017-12-02T06:15:47.124Z,1018.49
2017-12-02T06:16:47.148Z,1018.47
2017-12-02T06:17:47.152Z,1018.49
2017-12-02T06:18:47.177Z,1018.48
2017-12-02T06:19:47.176Z,1018.48
2017-12-02T06:20:47.195Z,1018.48
2017-12-02T06:21:47.202Z,1018.53
2017-12-02T06:22:47.210Z,1018.49
2017-12-02T06:23:47.216Z,1018.51
2017-12-02T06:24:47.247Z,1018.54
2017-12-02T06:25:47.255Z,1018.55
2017-12-02T06:26:47.254Z,1018.57
2017-12-02T06:27:47.286Z,1018.55
2017-12-02T06:28:47.289Z,1018.58
2017-12-02T06:29:47.299Z,1018.56
2017-12-02T06:30:47.312Z,1018.57
2017-12-02T06:31:47.323Z,1018.56
2017-12-02T06:32:47.341Z,1018.53
2017-12-02T06:33:47.354Z,1018.58
2017-12-02T06:34:47.357Z,1018.60
2017-12-02T06:35:47.674Z,1018.60
2017-12-02T06:36:47.383Z,1018.60
2017-12-02T06:37:47.389Z,1018.58
2017-12-02T06:38:47.408Z,1018.62
2017-12-02T06:39:47.420Z,1018.61
2017-12-02T06:40:47.438Z,1018.63
2017-12-02T06:41:47.447Z,1018.65
2017-12-02T06:42:47.446Z,1018.63
2017-12-02T06:43:47.478Z,1018.67
2017-12-02T06:44:47.482Z,1018.68
2017-12-02T06:45:47.485Z,1018.69
2017-12-02T06:46:47.516Z,1018.66
2017-12-02T06:47:47.522Z,1018.71
2017-12-02T06:48:47.528Z,1018.73
2017-12-02T06:49:47.538Z,1018.70
2017-12-02T06:50:47.561Z,1018.78
2017-12-02T06:51:47.574Z,1018.75
2017-12-02T06:52:47.573Z,1018.80
2017-12-02T06:53:47.587Z,1018.79
2017-12-02T06:54:47.606Z,1018.75
2017-12-02T06:55:47.611Z,1018.80
2017-12-02T06:56:47.630Z,1018.80
2017-12-02T06:57:47.634Z,1018.80
2017-12-02T06:58:47.650Z,1018.80
2017-12-02T06:59:47.682Z,1018.79
2017-12-02T07:00:47.924Z,1018.78
2017-12-02T07:01:47.677Z,1018.79
2017-12-02T07:02:47.709Z,1018.75
2017-12-02T07:03:47.714Z,1018.75
2017-12-02T07:04:47.720Z,1018.81
2017-12-02T07:05:47.731Z,1018.76
2017-12-02T07:06:47.753Z,1018.80
2017-12-02T07:07:47.767Z,1018.81
2017-12-02T07:08:47.765Z,1018.87
2017-12-02T07:09:47.785Z,1018.86
2017-12-02T07:10:47.798Z,1018.84
2017-12-02T07:11:47.804Z,1018.86
2017-12-02T07:12:47.836Z,1018.87
2017-12-02T07:13:47.844Z,1018.92
2017-12-02T07:14:47.843Z,1018.92
2017-12-02T07:15:47.873Z,1018.93
2017-12-02T07:16:47.862Z,1018.94
2017-12-02T07:17:47.910Z,1018.94
2017-12-02T07:18:47.894Z,1018.97
2017-12-02T07:19:47.906Z,1018.95
2017-12-02T07:20:48.182Z,1019.01
2017-12-02T07:21:47.941Z,1019.00
2017-12-02T07:22:47.939Z,1019.00
2017-12-02T07:23:47.958Z,1019.01
2017-12-02T07:24:47.981Z,1019.01
2017-12-02T07:25:47.980Z,1018.98
2017-12-02T07:26:48.049Z,1019.02
2017-12-02T07:27:48.014Z,1019.03
2017-12-02T07:28:48.027Z,1019.03
2017-12-02T07:29:48.030Z,1019.06
2017-12-02T07:30:48.346Z,1019.08
2017-12-02T07:31:48.056Z,1019.08
2017-12-02T07:32:48.070Z,1019.08
2017-12-02T07:33:48.084Z,1019.11
2017-12-02T07:34:48.095Z,1019.06
2017-12-02T07:35:48.115Z,1019.10
2017-12-02T07:36:48.118Z,1019.14
2017-12-02T07:37:48.122Z,1019.10
2017-12-02T07:38:48.154Z,1019.11
2017-12-02T07:39:48.152Z,1019.11
2017-12-02T07:40:48.415Z,1019.13
2017-12-02T07:41:48.186Z,1019.14
2017-12-02T07:42:48.191Z,1019.13
2017-12-02T07:43:48.212Z,1019.11
2017-12-02T07:44:48.210Z,1019.14
2017-12-02T07:45:48.231Z,1019.14
2017-12-02T07:46:48.244Z,1019.17
2017-12-02T07:47:48.251Z,1019.15
2017-12-02T07:48:48.275Z,1019.21
2017-12-02T07:49:48.282Z,1019.25
2017-12-02T07:50:48.295Z,1019.28
2017-12-02T07:51:48.314Z,1019.25
2017-12-02T07:52:48.330Z,1019.24
2017-12-02T07:53:48.327Z,1019.26
2017-12-02T07:54:48.347Z,1019.26
2017-12-02T07:55:48.364Z,1019.31
2017-12-02T07:56:48.377Z,1019.29
2017-12-02T07:57:48.398Z,1019.31
2017-12-02T07:58:48.403Z,1019.31
2017-12-02T07:59:48.410Z,1019.28
2017-12-02T08:00:48.420Z,1019.29
2017-12-02T08:01:48.434Z,1019.33
2017-12-02T08:02:48.455Z,1019.30
2017-12-02T08:03:48.452Z,1019.33
2017-12-02T08:04:48.474Z,1019.34
2017-12-02T08:05:48.498Z,1019.34
2017-12-02T08:06:48.491Z,1019.39
2017-12-02T08:07:48.513Z,1019.33
2017-12-02T08:08:48.534Z,1019.34
2017-12-02T08:09:48.530Z,1019.34
2017-12-02T08:10:48.547Z,1019.31
2017-12-02T08:11:48.562Z,1019.31
2017-12-02T08:12:48.574Z,1019.36
2017-12-02T08:13:48.592Z,1019.34
2017-12-02T08:14:48.596Z,1019.36
2017-12-02T08:15:48.865Z,1019.35
2017-12-02T08:16:48.619Z,1019.37
2017-12-02T08:17:48.628Z,1019.39
2017-12-02T08:18:48.654Z,1019.40
2017-12-02T08:19:48.659Z,1019.41
2017-12-02T08:20:48.928Z,1019.38
2017-12-02T08:21:48.699Z,1019.39
2017-12-02T08:22:48.703Z,1019.43
2017-12-02T08:23:48.718Z,1019.41
2017-12-02T08:24:48.721Z,1019.38
2017-12-02T08:25:48.737Z,1019.42
2017-12-02T08:26:48.749Z,1019.46
2017-12-02T08:27:48.760Z,1019.49
2017-12-02T08:28:48.780Z,1019.53
2017-12-02T08:29:48.789Z,1019.58
2017-12-02T08:30:48.800Z,1019.62
2017-12-02T08:31:48.813Z,1019.57
2017-12-02T08:32:48.823Z,1019.61
2017-12-02T08:33:48.833Z,1019.63
2017-12-02T08:34:48.845Z,1019.61
2017-12-02T08:35:48.862Z,1019.63
2017-12-02T08:36:48.881Z,1019.66
2017-12-02T08:37:48.905Z,1019.64
2017-12-02T08:38:48.904Z,1019.64
2017-12-02T08:39:48.921Z,1019.69
2017-12-02T08:40:48.930Z,1019.65
2017-12-02T08:41:48.936Z,1019.68
2017-12-02T08:42:48.954Z,1019.72
2017-12-02T08:43:48.965Z,1019.72
2017-12-02T08:44:48.978Z,1019.70
2017-12-02T08:45:48.999Z,1019.68
2017-12-02T08:46:49.008Z,1019.66
2017-12-02T08:47:49.012Z,1019.68
2017-12-02T08:48:49.029Z,1019.68
2017-12-02T08:49:49.043Z,1019.69
2017-12-02T08:50:49.051Z,1019.66
2017-12-02T08:51:49.079Z,1019.67
2017-12-02T08:52:49.081Z,1019.68
2017-12-02T08:53:49.090Z,1019.66
2017-12-02T08:54:49.112Z,1019.65
2017-12-02T08:55:49.118Z,1019.68
2017-12-02T08:56:49.123Z,1019.63
2017-12-02T08:57:49.151Z,1019.62
2017-12-02T08:58:49.164Z,1019.61
2017-12-02T08:59:49.164Z,1019.63
2017-12-02T09:00:49.196Z,1019.64
2017-12-02T09:01:49.198Z,1019.67
2017-12-02T09:02:49.203Z,1019.63
2017-12-02T09:03:49.229Z,1019.64
2017-12-02T09:04:49.233Z,1019.65
2017-12-02T09:05:49.248Z,1019.67
2017-12-02T09:06:49.257Z,1019.72
2017-12-02T09:07:49.272Z,1019.74
2017-12-02T09:08:49.285Z,1019.75
2017-12-02T09:09:49.302Z,1019.72
2017-12-02T09:10:49.311Z,1019.77
2017-12-02T09:11:49.324Z,1019.72
2017-12-02T09:12:49.330Z,1019.72
2017-12-02T09:13:49.363Z,1019.74
2017-12-02T09:14:49.366Z,1019.76
2017-12-02T09:15:49.367Z,1019.79
2017-12-02T09:16:49.392Z,1019.79
2017-12-02T09:17:49.409Z,1019.80
2017-12-02T09:18:49.422Z,1019.86
2017-12-02T09:19:49.439Z,1019.88
2017-12-02T09:20:49.437Z,1019.91
2017-12-02T09:21:49.452Z,1019.93
2017-12-02T09:22:49.471Z,1019.89
2017-12-02T09:23:49.477Z,1019.87
2017-12-02T09:24:49.496Z,1019.92
2017-12-02T09:25:49.500Z,1019.91
2017-12-02T09:26:49.522Z,1019.94
2017-12-02T09:27:49.528Z,1019.91
2017-12-02T09:28:49.534Z,1019.91
2017-12-02T09:29:49.562Z,1019.91
2017-12-02T09:30:49.575Z,1019.92
2017-12-02T09:31:49.579Z,1019.93
2017-12-02T09:32:49.599Z,1019.97
2017-12-02T09:33:49.614Z,1019.91
2017-12-02T09:34:49.619Z,1019.93
2017-12-02T09:35:49.682Z,1019.96
2017-12-02T09:36:49.647Z,1019.97
2017-12-02T09:37:49.651Z,1019.94
2017-12-02T09:38:49.682Z,1019.95
2017-12-02T09:39:49.692Z,1019.92
2017-12-02T09:40:49.692Z,1019.90
2017-12-02T09:41:49.712Z,1019.94
2017-12-02T09:42:49.731Z,1019.91
2017-12-02T09:43:49.736Z,1019.92
2017-12-02T09:44:49.762Z,1019.92
2017-12-02T09:45:49.770Z,1019.96
2017-12-02T09:46:49.775Z,1019.96
2017-12-02T09:47:49.794Z,1019.97
2017-12-02T09:48:49.806Z,1019.99
2017-12-02T09:49:49.808Z,1019.96
2017-12-02T09:50:49.840Z,1020.00
2017-12-02T09:51:49.839Z,1020.00
2017-12-02T09:52:49.859Z,1019.98
2017-12-02T09:53:49.879Z,1019.99
2017-12-02T09:54:49.888Z,1019.97
2017-12-02T09:55:49.904Z,1019.99
2017-12-02T09:56:49.914Z,1019.98
2017-12-02T09:57:49.916Z,1019.98
2017-12-02T09:58:49.942Z,1019.95
2017-12-02T09:59:49.953Z,1019.99
2017-12-02T10:00:49.959Z,1020.01
2017-12-02T10:01:49.988Z,1019.99
2017-12-02T10:02:49.992Z,1020.01
2017-12-02T10:03:50.001Z,1020.03
2017-12-02T10:04:50.015Z,1020.05
2017-12-02T10:05:50.032Z,1020.04
2017-12-02T10:06:50.057Z,1020.01
2017-12-02T10:07:50.062Z,1020.00
2017-12-02T10:08:50.076Z,1020.03
2017-12-02T10:09:50.091Z,1020.00
2017-12-02T10:10:50.094Z,1020.00
2017-12-02T10:11:50.114Z,1020.01
2017-12-02T10:12:50.124Z,1020.03
2017-12-02T10:13:50.134Z,1020.01
2017-12-02T10:14:50.165Z,1019.98
2017-12-02T10:15:50.171Z,1019.98
2017-12-02T10:16:50.178Z,1019.94
2017-12-02T10:17:50.216Z,1020.00
2017-12-02T10:18:50.209Z,1020.01
2017-12-02T10:19:50.230Z,1020.01
2017-12-02T10:20:50.233Z,1019.91
2017-12-02T10:21:50.248Z,1019.90
2017-12-02T10:22:50.274Z,1019.99
2017-12-02T10:23:50.279Z,1019.93
2017-12-02T10:24:50.304Z,1019.95
2017-12-02T10:25:50.308Z,1019.99
2017-12-02T10:26:50.318Z,1019.89
2017-12-02T10:27:50.336Z,1019.95
2017-12-02T10:28:50.348Z,1019.95
2017-12-02T10:29:50.363Z,1019.98
2017-12-02T10:30:50.381Z,1019.94
2017-12-02T10:31:50.394Z,1019.93
2017-12-02T10:32:50.413Z,1019.92
2017-12-02T10:33:50.417Z,1019.89
2017-12-02T10:34:50.438Z,1019.87
2017-12-02T10:35:50.453Z,1019.87
2017-12-02T10:36:50.472Z,1019.86
2017-12-02T10:37:50.479Z,1019.86
2017-12-02T10:38:50.497Z,1019.86
2017-12-02T10:39:50.503Z,1019.86
2017-12-02T10:40:50.783Z,1019.88
2017-12-02T10:41:50.537Z,1019.88
2017-12-02T10:42:50.553Z,1019.87
2017-12-02T10:43:50.574Z,1019.87
2017-12-02T10:44:50.578Z,1019.88
2017-12-02T10:45:50.599Z,1019.86
2017-12-02T10:46:50.606Z,1019.89
2017-12-02T10:47:50.623Z,1019.91
2017-12-02T10:48:50.649Z,1019.97
2017-12-02T10:49:50.657Z,1020.00
2017-12-02T10:50:50.663Z,1020.00
2017-12-02T10:51:50.694Z,1020.03
2017-12-02T10:52:50.693Z,1019.97
2017-12-02T10:53:50.721Z,1019.97
2017-12-02T10:54:50.734Z,1019.91
2017-12-02T10:55:50.751Z,1019.91
2017-12-02T10:56:50.767Z,1019.81
2017-12-02T10:57:50.786Z,1019.84
2017-12-02T10:58:50.790Z,1019.86
2017-12-02T10:59:50.809Z,1019.81
2017-12-02T11:00:50.821Z,1019.86
2017-12-02T11:01:50.840Z,1019.78
2017-12-02T11:02:50.856Z,1019.85
2017-12-02T11:03:50.872Z,1019.83
2017-12-02T11:04:50.879Z,1019.85
2017-12-02T11:05:50.901Z,1019.82
2017-12-02T11:06:50.930Z,1019.79
2017-12-02T11:07:50.936Z,1019.82
2017-12-02T11:08:50.947Z,1019.85
2017-12-02T11:09:50.957Z,1019.80
2017-12-02T11:10:50.981Z,1019.84
2017-12-02T11:11:50.987Z,1019.84
2017-12-02T11:12:51.013Z,1019.83
2017-12-02T11:13:51.027Z,1019.80
2017-12-02T11:14:51.038Z,1019.85
2017-12-02T11:15:51.070Z,1019.86
2017-12-02T11:16:51.069Z,1019.89
2017-12-02T11:17:51.099Z,1019.89
2017-12-02T11:18:51.110Z,1019.91
2017-12-02T11:19:51.122Z,1019.92
2017-12-02T11:20:51.433Z,1019.93
2017-12-02T11:21:51.161Z,1019.88
2017-12-02T11:22:51.160Z,1019.94
2017-12-02T11:23:51.191Z,1019.93
2017-12-02T11:24:51.191Z,1019.92
2017-12-02T11:25:51.219Z,1019.90
2017-12-02T11:26:51.223Z,1019.90
2017-12-02T11:27:51.248Z,1019.93
2017-12-02T11:28:51.261Z,1019.96
2017-12-02T11:29:51.283Z,1019.98
2017-12-02T11:30:51.286Z,1019.94
2017-12-02T11:31:51.312Z,1019.93
2017-12-02T11:32:51.317Z,1019.92
2017-12-02T11:33:51.342Z,1019.91
2017-12-02T11:34:51.346Z,1019.93
2017-12-02T11:35:51.362Z,1019.92
2017-12-02T11:36:51.382Z,1019.91
2017-12-02T11:37:51.403Z,1019.92
2017-12-02T11:38:51.407Z,1019.89
2017-12-02T11:39:51.434Z,1019.89
2017-12-02T11:40:51.432Z,1019.89
2017-12-02T11:41:51.453Z,1019.87
2017-12-02T11:42:51.467Z,1019.89
2017-12-02T11:43:51.484Z,1019.94
2017-12-02T11:44:51.504Z,1019.90
2017-12-02T11:45:51.518Z,1019.93
2017-12-02T11:46:51.541Z,1019.94
2017-12-02T11:47:51.550Z,1019.94
2017-12-02T11:48:51.564Z,1019.95
2017-12-02T11:49:51.579Z,1019.92
2017-12-02T11:50:51.584Z,1019.92
2017-12-02T11:51:51.608Z,1019.94
2017-12-02T11:52:51.626Z,1019.90
2017-12-02T11:53:51.641Z,1019.93
2017-12-02T11:54:51.648Z,1019.90
2017-12-02T11:55:51.671Z,1019.89
2017-12-02T11:56:51.685Z,1019.91
2017-12-02T11:57:51.700Z,1019.91
2017-12-02T11:58:51.712Z,1019.89
2017-12-02T11:59:51.731Z,1019.94
2017-12-02T12:00:51.742Z,1019.92
2017-12-02T12:01:51.762Z,1019.91
2017-12-02T12:02:51.771Z,1019.92
2017-12-02T12:03:51.793Z,1019.91
2017-12-02T12:04:51.800Z,1019.94
2017-12-02T12:05:51.827Z,1019.92